Time,TemperatureF,DewpointF,PressureIn,WindDirection,WindDirectionDegrees,WindSpeedMPH,WindSpeedGustMPH,Humidity,HourlyPrecipIn,Conditions,Clouds,dailyrainin,SoftwareType,DateUTC
2013-07-17 00:11:00,76.0,-99.9,30.07,SE,145,7.0,12.0,-999,-99.99,,,-99.99,,2013-07-17 04:11:00,
2013-07-17 00:22:00,76.0,-99.9,30.08,SE,130,7.0,9.0,-999,-99.99,,,-99.99,,2013-07-17 04:22:00,
2013-07-17 00:32:00,76.0,-99.9,30.08,ESE,120,6.0,10.0,-999,-99.99,,,-99.99,,2013-07-17 04:32:00,
2013-07-17 00:43:00,75.0,-99.9,30.07,SSE,159,3.0,6.0,-999,-99.99,,,-99.99,,2013-07-17 04:43:00,
2013-07-17 01:02:00,75.0,-99.9,30.06,SSE,153,3.0,5.0,-999,-99.99,,,-99.99,,2013-07-17 05:02:00,
2013-07-17 01:11:00,75.0,-99.9,30.06,SSW,194,2.0,4.0,-999,-99.99,,,-99.99,,2013-07-17 05:11:00,
2013-07-17 01:22:00,75.0,-99.9,30.06,SSE,158,0.0,2.0,-999,-99.99,,,-99.99,,2013-07-17 05:22:00,
2013-07-17 01:32:00,75.0,-99.9,30.05,East,86,1.0,2.0,-999,-99.99,,,-99.99,,2013-07-17 05:32:00,
2013-07-17 01:43:00,76.0,-99.9,30.05,East,81,3.0,3.0,-999,-99.99,,,-99.99,,2013-07-17 05:43:00,
2013-07-17 02:01:00,76.0,-99.9,30.06,SSE,149,10.0,15.0,-999,-99.99,,,-99.99,,2013-07-17 06:01:00,
2013-07-17 03:01:00,74.0,-99.9,30.05,ESE,113,6.0,11.0,-999,-99.99,,,-99.99,,2013-07-17 07:01:00,
2013-07-17 03:22:00,74.0,-99.9,30.05,ESE,122,5.0,12.0,-999,-99.99,,,-99.99,,2013-07-17 07:22:00,
2013-07-17 03:52:00,76.0,-99.9,30.03,East,93,4.0,9.0,-999,-99.99,,,-99.99,,2013-07-17 07:52:00,
2013-07-17 04:02:00,76.0,-99.9,30.03,East,92,6.0,11.0,-999,-99.99,,,-99.99,,2013-07-17 08:02:00,
2013-07-17 04:11:00,76.0,-99.9,30.03,East,88,7.0,13.0,-999,-99.99,,,-99.99,,2013-07-17 08:11:00,
2013-07-17 04:32:00,77.0,-99.9,30.03,East,85,5.0,8.0,-999,-99.99,,,-99.99,,2013-07-17 08:32:00,
2013-07-17 04:43:00,77.0,-99.9,30.03,ENE,74,8.0,11.0,-999,-99.99,,,-99.99,,2013-07-17 08:43:00,
2013-07-17 04:53:00,76.0,-99.9,30.03,East,94,4.0,6.0,-999,-99.99,,,-99.99,,2013-07-17 08:53:00,
2013-07-17 05:02:00,76.0,-99.9,30.03,East,88,4.0,6.0,-999,-99.99,,,-99.99,,2013-07-17 09:02:00,
2013-07-17 05:12:00,77.0,-99.9,30.03,ESE,108,4.0,6.0,-999,-99.99,,,-99.99,,2013-07-17 09:12:00,
2013-07-17 05:32:00,77.0,-99.9,30.03,ESE,108,3.0,6.0,-999,-99.99,,,-99.99,,2013-07-17 09:32:00,
2013-07-17 05:43:00,77.0,-99.9,30.03,East,99,6.0,12.0,-999,-99.99,,,-99.99,,2013-07-17 09:43:00,
2013-07-17 05:52:00,76.0,-99.9,30.03,East,91,6.0,13.0,-999,-99.99,,,-99.99,,2013-07-17 09:52:00,
2013-07-17 06:01:00,76.0,-99.9,30.03,East,81,8.0,12.0,-999,-99.99,,,-99.99,,2013-07-17 10:01:00,
2013-07-17 06:11:00,77.0,-99.9,30.04,ENE,76,10.0,13.0,-999,-99.99,,,-99.99,,2013-07-17 10:11:00,
2013-07-17 06:22:00,77.0,-99.9,30.04,ENE,75,11.0,14.0,-999,-99.99,,,-99.99,,2013-07-17 10:22:00,
2013-07-17 06:32:00,77.0,-99.9,30.04,ENE,78,11.0,15.0,-999,-99.99,,,-99.99,,2013-07-17 10:32:00,
2013-07-17 06:43:00,77.0,-99.9,30.04,ENE,75,11.0,14.0,-999,-99.99,,,-99.99,,2013-07-17 10:43:00,
2013-07-17 07:42:00,76.0,-99.9,30.06,ESE,114,5.0,9.0,-999,-99.99,,,-99.99,,2013-07-17 11:42:00,
2013-07-17 08:43:00,77.0,-99.9,30.08,NE,52,8.0,11.0,-999,-99.99,,,-99.99,,2013-07-17 12:43:00,
2013-07-17 09:02:00,77.0,-99.9,30.08,NE,45,11.0,13.0,-999,-99.99,,,-99.99,,2013-07-17 13:02:00,
2013-07-17 09:43:00,77.0,-99.9,30.09,ENE,58,10.0,15.0,-999,-99.99,,,-99.99,,2013-07-17 13:43:00,
2013-07-17 10:11:00,77.0,-99.9,30.08,NNE,33,8.0,13.0,-999,-99.99,,,-99.99,,2013-07-17 14:11:00,
2013-07-17 10:22:00,77.0,-99.9,30.08,East,82,7.0,14.0,-999,-99.99,,,-99.99,,2013-07-17 14:22:00,
2013-07-17 10:32:00,77.0,-99.9,30.08,ENE,69,9.0,15.0,-999,-99.99,,,-99.99,,2013-07-17 14:32:00,
2013-07-17 10:43:00,77.0,-99.9,30.08,East,79,10.0,14.0,-999,-99.99,,,-99.99,,2013-07-17 14:43:00,
2013-07-17 10:52:00,77.0,-99.9,30.08,East,79,10.0,14.0,-999,-99.99,,,-99.99,,2013-07-17 14:52:00,
2013-07-17 11:02:00,77.0,-99.9,30.08,East,79,10.0,14.0,-999,-99.99,,,-99.99,,2013-07-17 15:02:00,
2013-07-17 12:43:00,79.0,-99.9,30.10,ESE,105,5.0,9.0,-999,-99.99,,,-99.99,,2013-07-17 16:43:00,
2013-07-17 13:02:00,78.0,-99.9,30.11,East,83,8.0,11.0,-999,-99.99,,,-99.99,,2013-07-17 17:02:00,
2013-07-17 13:43:00,79.0,-99.9,30.10,East,96,5.0,8.0,-999,-99.99,,,-99.99,,2013-07-17 17:43:00,
2013-07-17 14:01:00,79.0,-99.9,30.10,East,100,5.0,9.0,-999,-99.99,,,-99.99,,2013-07-17 18:01:00,
2013-07-17 14:11:00,79.0,-99.9,30.10,ESE,112,6.0,9.0,-999,-99.99,,,-99.99,,2013-07-17 18:11:00,
2013-07-17 14:43:00,79.0,-99.9,30.09,ESE,111,6.0,11.0,-999,-99.99,,,-99.99,,2013-07-17 18:43:00,
2013-07-17 15:43:00,80.0,-99.9,30.06,ESE,116,6.0,8.0,-999,-99.99,,,-99.99,,2013-07-17 19:43:00,
2013-07-17 16:11:00,80.0,-99.9,30.05,East,101,3.0,9.0,-999,-99.99,,,-99.99,,2013-07-17 20:11:00,
2013-07-17 16:22:00,80.0,-99.9,30.04,ESE,102,4.0,9.0,-999,-99.99,,,-99.99,,2013-07-17 20:22:00,
2013-07-17 16:33:00,80.0,-99.9,30.04,East,92,5.0,10.0,-999,-99.99,,,-99.99,,2013-07-17 20:33:00,
2013-07-17 16:43:00,80.0,-99.9,30.03,East,93,7.0,10.0,-999,-99.99,,,-99.99,,2013-07-17 20:43:00,
2013-07-17 17:12:00,80.0,-99.9,30.02,East,79,7.0,12.0,-999,-99.99,,,-99.99,,2013-07-17 21:12:00,
2013-07-17 17:22:00,80.0,-99.9,30.01,ENE,75,8.0,13.0,-999,-99.99,,,-99.99,,2013-07-17 21:22:00,
2013-07-17 17:42:00,80.0,-99.9,30.01,ENE,72,8.0,11.0,-999,-99.99,,,-99.99,,2013-07-17 21:42:00,
2013-07-17 18:01:00,80.0,-99.9,30.01,East,93,8.0,12.0,-999,-99.99,,,-99.99,,2013-07-17 22:01:00,
2013-07-17 18:43:00,80.0,-99.9,30.03,East,101,5.0,9.0,-999,-99.99,,,-99.99,,2013-07-17 22:43:00,
2013-07-17 19:02:00,80.0,-99.9,30.03,East,101,7.0,11.0,-999,-99.99,,,-99.99,,2013-07-17 23:02:00,
2013-07-17 19:11:00,80.0,-99.9,30.04,East,87,7.0,13.0,-999,-99.99,,,-99.99,,2013-07-17 23:11:00,
2013-07-17 20:01:00,80.0,-99.9,30.05,East,88,6.0,12.0,-999,-99.99,,,-99.99,,2013-07-18 00:01:00,
2013-07-17 20:11:00,80.0,-99.9,30.05,East,92,6.0,9.0,-999,-99.99,,,-99.99,,2013-07-18 00:11:00,
2013-07-17 20:33:00,80.0,-99.9,30.05,ENE,74,7.0,10.0,-999,-99.99,,,-99.99,,2013-07-18 00:33:00,
2013-07-17 20:43:00,80.0,-99.9,30.05,ENE,72,7.0,9.0,-999,-99.99,,,-99.99,,2013-07-18 00:43:00,
2013-07-17 21:22:00,80.0,-99.9,30.06,East,92,6.0,12.0,-999,-99.99,,,-99.99,,2013-07-18 01:22:00,
2013-07-17 21:43:00,80.0,-99.9,30.07,East,92,6.0,10.0,-999,-99.99,,,-99.99,,2013-07-18 01:43:00,
2013-07-17 22:02:00,80.0,-99.9,30.07,East,95,6.0,9.0,-999,-99.99,,,-99.99,,2013-07-18 02:02:00,
2013-07-17 23:11:00,72.0,-99.9,30.07,East,81,4.0,4.0,-999,-99.99,,,-99.99,,2013-07-18 03:11:00,
2013-07-17 23:22:00,72.0,-99.9,30.07,SE,134,3.0,7.0,-999,-99.99,,,-99.99,,2013-07-18 03:22:00,
2013-07-17 23:43:00,73.0,-99.9,30.07,SE,132,2.0,3.0,-999,-99.99,,,-99.99,,2013-07-18 03:43:00,